createdAt,value
2023-04-18T00:00:36.890Z,68.27
2023-04-18T00:03:04.590Z,67.79
2023-04-18T00:05:31.674Z,67.60
2023-04-18T00:07:58.286Z,67.69
2023-04-18T00:10:24.976Z,67.45
2023-04-18T00:12:51.549Z,67.88
2023-04-18T00:15:21.188Z,67.99
2023-04-18T00:17:48.368Z,68.02
2023-04-18T00:20:15.153Z,68.10
2023-04-18T00:22:42.830Z,68.06
2023-04-18T00:25:10.671Z,68.51
2023-04-18T00:27:39.204Z,68.50
2023-04-18T00:30:07.146Z,68.54
2023-04-18T00:32:34.949Z,68.58
2023-04-18T00:35:01.850Z,68.79
2023-04-18T00:37:30.056Z,68.87
2023-04-18T00:39:56.646Z,69.21
2023-04-18T00:42:25.452Z,68.70
2023-04-18T00:44:54.877Z,68.76
2023-04-18T00:47:21.564Z,69.16
2023-04-18T00:49:48.583Z,69.54
2023-04-18T00:52:16.750Z,69.11
2023-04-18T00:54:44.813Z,69.00
2023-04-18T00:57:12.438Z,69.39
2023-04-18T00:59:39.281Z,69.64
2023-04-18T01:02:06.038Z,69.78
2023-04-18T01:04:32.869Z,69.86
2023-04-18T01:07:01.512Z,69.75
2023-04-18T01:09:28.740Z,70.19
2023-04-18T01:11:55.503Z,70.14
2023-04-18T01:14:22.393Z,70.34
2023-04-18T01:16:49.254Z,70.45
2023-04-18T01:19:19.503Z,70.26
2023-04-18T01:21:46.120Z,70.35
2023-04-18T01:24:17.148Z,69.95
2023-04-18T01:26:47.619Z,69.98
2023-04-18T01:29:14.404Z,69.93
2023-04-18T01:31:41.651Z,69.89
2023-04-18T01:34:08.661Z,70.12
2023-04-18T01:36:36.415Z,70.41
2023-04-18T01:39:03.580Z,70.59
2023-04-18T01:41:32.693Z,70.28
2023-04-18T01:43:59.993Z,70.59
2023-04-18T01:46:27.165Z,70.52
2023-04-18T01:48:53.954Z,70.66
2023-04-18T01:51:20.636Z,70.37
2023-04-18T01:53:47.291Z,70.54
2023-04-18T01:56:13.972Z,70.30
2023-04-18T01:58:41.698Z,70.40
2023-04-18T02:01:10.828Z,70.45
2023-04-18T02:03:37.733Z,70.48
2023-04-18T02:06:05.733Z,70.43
2023-04-18T02:08:35.613Z,70.69
2023-04-18T02:11:02.688Z,70.82
2023-04-18T02:13:29.298Z,70.98
2023-04-18T02:15:55.984Z,70.84
2023-04-18T02:18:24.829Z,70.62
2023-04-18T02:20:52.073Z,71.21
2023-04-18T02:23:19.219Z,70.80
2023-04-18T02:25:45.865Z,70.67
2023-04-18T02:28:12.482Z,70.97
2023-04-18T02:30:39.121Z,70.98
2023-04-18T02:33:05.792Z,70.86
2023-04-18T02:35:32.501Z,70.96
2023-04-18T02:37:59.092Z,70.48
2023-04-18T02:40:25.699Z,70.73
2023-04-18T02:42:52.345Z,70.71
2023-04-18T02:45:19.083Z,71.09
2023-04-18T02:47:54.335Z,71.06
2023-04-18T02:50:22.701Z,70.94
2023-04-18T02:52:49.347Z,70.92
2023-04-18T02:55:16.273Z,70.96
2023-04-18T02:57:43.213Z,70.95
2023-04-18T03:00:10.385Z,70.64
2023-04-18T03:02:37.222Z,70.57
2023-04-18T03:05:04.230Z,70.60
2023-04-18T03:07:31.097Z,70.71
2023-04-18T03:09:58.046Z,70.96
2023-04-18T03:12:24.685Z,70.88
2023-04-18T03:14:54.398Z,70.63
2023-04-18T03:17:21.244Z,71.08
2023-04-18T03:19:47.932Z,71.07
2023-04-18T03:22:16.151Z,71.39
2023-04-18T03:24:42.823Z,71.41
2023-04-18T03:27:09.440Z,71.63
2023-04-18T03:29:36.149Z,71.31
2023-04-18T03:32:02.871Z,71.06
2023-04-18T03:34:29.782Z,71.26
2023-04-18T03:36:56.615Z,71.19
2023-04-18T03:39:23.197Z,71.13
2023-04-18T03:41:49.984Z,70.94
2023-04-18T03:44:19.217Z,70.55
2023-04-18T03:46:46.066Z,70.70
2023-04-18T03:49:12.833Z,71.05
2023-04-18T03:51:44.504Z,71.32
2023-04-18T03:54:11.341Z,71.22
2023-04-18T03:56:38.171Z,70.88
2023-04-18T03:59:04.793Z,70.95
2023-04-18T04:01:31.670Z,70.78
2023-04-18T04:03:58.511Z,71.20
2023-04-18T04:06:26.336Z,70.98
2023-04-18T04:08:53.503Z,70.86
2023-04-18T04:11:20.159Z,71.02
2023-04-18T04:13:46.729Z,71.04
2023-04-18T04:16:13.521Z,71.19
2023-04-18T04:18:40.300Z,71.42
2023-04-18T04:21:06.895Z,70.99
2023-04-18T04:23:34.345Z,71.23
2023-04-18T04:26:04.703Z,70.78
2023-04-18T04:28:31.692Z,71.35
2023-04-18T04:30:58.410Z,71.26
2023-04-18T04:33:28.771Z,71.57
2023-04-18T04:35:55.792Z,71.72
2023-04-18T04:38:25.161Z,70.99
2023-04-18T04:40:53.000Z,71.36
2023-04-18T04:43:20.570Z,71.58
2023-04-18T04:45:51.764Z,71.61
2023-04-18T04:48:20.014Z,71.94
2023-04-18T04:50:55.139Z,72.10
2023-04-18T04:53:22.483Z,71.82
2023-04-18T04:55:49.435Z,72.11
2023-04-18T04:58:16.334Z,71.74
2023-04-18T05:00:43.058Z,71.79
2023-04-18T05:03:10.784Z,71.33
2023-04-18T05:05:37.799Z,71.58
2023-04-18T05:08:04.652Z,71.13
2023-04-18T05:10:31.300Z,71.10
2023-04-18T05:12:57.992Z,70.61
2023-04-18T05:15:25.115Z,70.73
2023-04-18T05:17:54.740Z,70.22
2023-04-18T05:20:21.523Z,70.17
2023-04-18T05:22:48.162Z,69.99
2023-04-18T05:25:14.858Z,70.00
2023-04-18T05:27:41.860Z,69.92
2023-04-18T05:30:08.912Z,70.09
2023-04-18T05:32:35.681Z,70.05
2023-04-18T05:35:02.409Z,69.89
2023-04-18T05:37:29.074Z,69.97
2023-04-18T05:39:55.803Z,69.99
2023-04-18T05:42:22.467Z,69.58
2023-04-18T05:44:49.084Z,69.69
2023-04-18T05:47:16.899Z,69.25
2023-04-18T05:49:43.944Z,69.47
2023-04-18T05:52:11.476Z,69.49
2023-04-18T05:54:38.127Z,69.55
2023-04-18T05:57:04.985Z,69.31
2023-04-18T05:59:31.646Z,69.27
2023-04-18T06:01:58.208Z,68.85
2023-04-18T06:04:25.035Z,68.45
2023-04-18T06:06:51.966Z,68.38
2023-04-18T06:09:18.596Z,68.16
2023-04-18T06:11:45.484Z,68.10
2023-04-18T06:14:15.224Z,67.31
2023-04-18T06:16:42.251Z,66.99
2023-04-18T06:19:08.884Z,67.43
2023-04-18T06:21:35.603Z,67.15
2023-04-18T06:24:02.437Z,67.05
2023-04-18T06:26:30.219Z,66.75
2023-04-18T06:28:58.406Z,66.75
2023-04-18T06:31:25.136Z,66.49
2023-04-18T06:33:51.798Z,66.21
2023-04-18T06:36:18.711Z,66.34
2023-04-18T06:38:49.956Z,66.05
2023-04-18T06:41:16.592Z,66.21
2023-04-18T06:43:55.714Z,65.81
2023-04-18T06:46:29.474Z,65.98
2023-04-18T06:48:56.258Z,66.22
2023-04-18T06:51:22.867Z,65.91
2023-04-18T06:53:52.794Z,65.52
2023-04-18T06:56:20.819Z,65.12
2023-04-18T06:58:48.232Z,65.08
2023-04-18T07:01:14.888Z,65.08
2023-04-18T07:03:41.647Z,64.68
2023-04-18T07:06:10.590Z,64.66
2023-04-18T07:08:37.819Z,64.14
2023-04-18T07:11:07.433Z,63.43
2023-04-18T07:13:34.065Z,62.50
2023-04-18T07:16:01.693Z,62.40
2023-04-18T07:18:37.425Z,61.96
2023-04-18T07:21:07.702Z,61.80
2023-04-18T07:23:39.229Z,60.93
2023-04-18T07:26:06.645Z,60.65
2023-04-18T07:28:33.379Z,60.41
2023-04-18T07:31:03.804Z,60.24
2023-04-18T07:33:33.965Z,59.95
2023-04-18T07:36:06.107Z,59.46
2023-04-18T07:38:34.855Z,59.15
2023-04-18T07:41:03.010Z,59.26
2023-04-18T07:43:29.934Z,59.36
2023-04-18T07:45:56.810Z,58.79
2023-04-18T07:48:23.485Z,57.93
2023-04-18T07:50:50.124Z,58.40
2023-04-18T07:53:17.121Z,58.25
2023-04-18T07:55:43.756Z,57.95
2023-04-18T07:58:10.556Z,57.63
2023-04-18T08:00:39.331Z,57.76
2023-04-18T08:03:07.812Z,57.22
2023-04-18T08:05:34.806Z,56.96
2023-04-18T08:08:01.681Z,57.14
2023-04-18T08:10:28.630Z,57.03
2023-04-18T08:12:55.243Z,56.20
2023-04-18T08:15:21.838Z,56.53
2023-04-18T08:17:49.229Z,56.60
2023-04-18T08:20:15.978Z,56.27
2023-04-18T08:22:57.706Z,55.63
2023-04-18T08:25:29.715Z,55.86
2023-04-18T08:27:56.310Z,55.67
2023-04-18T08:30:22.964Z,54.27
2023-04-18T08:32:49.958Z,54.76
2023-04-18T08:35:16.756Z,54.80
2023-04-18T08:37:43.552Z,54.30
2023-04-18T08:40:10.410Z,54.73
2023-04-18T08:42:46.020Z,54.39
2023-04-18T08:45:16.406Z,53.91
2023-04-18T08:47:43.159Z,53.83
2023-04-18T08:50:10.619Z,54.06
2023-04-18T08:52:39.861Z,53.88
2023-04-18T08:55:07.421Z,52.36
2023-04-18T08:57:37.198Z,52.55
2023-04-18T09:00:10.441Z,52.26
2023-04-18T09:02:45.255Z,52.56
2023-04-18T09:05:18.886Z,52.32
2023-04-18T09:07:46.819Z,52.25
2023-04-18T09:10:13.964Z,51.90
2023-04-18T09:12:50.656Z,51.85
2023-04-18T09:15:20.916Z,51.46
2023-04-18T09:17:51.019Z,51.61
2023-04-18T09:20:41.167Z,51.24
2023-04-18T09:23:10.797Z,51.11
2023-04-18T09:25:45.078Z,51.23
2023-04-18T09:28:27.076Z,51.12
2023-04-18T09:30:54.642Z,50.48
2023-04-18T09:33:34.791Z,50.74
2023-04-18T09:36:28.515Z,51.00
2023-04-18T09:38:56.703Z,50.31
2023-04-18T09:41:24.389Z,50.36
2023-04-18T09:44:11.654Z,49.34
2023-04-18T09:46:40.161Z,49.23
2023-04-18T09:49:08.472Z,49.96
2023-04-18T09:51:38.387Z,49.17
2023-04-18T09:54:05.924Z,49.28
2023-04-18T09:56:34.614Z,47.81
2023-04-18T09:59:10.167Z,47.05
2023-04-18T10:01:37.881Z,46.67
2023-04-18T10:04:09.181Z,46.70
2023-04-18T10:06:42.446Z,46.29
2023-04-18T10:09:09.963Z,45.58
2023-04-18T10:11:36.934Z,45.80
2023-04-18T10:14:09.869Z,45.46
2023-04-18T10:16:37.625Z,45.43
2023-04-18T10:19:30.788Z,44.81
2023-04-18T10:22:01.987Z,44.63
2023-04-18T10:24:49.968Z,44.02
2023-04-18T10:27:17.838Z,44.12
2023-04-18T10:29:52.419Z,44.45
2023-04-18T10:32:22.724Z,43.93
2023-04-18T10:34:50.504Z,43.32
2023-04-18T10:37:19.084Z,42.62
2023-04-18T10:39:57.097Z,42.41
2023-04-18T10:42:48.373Z,41.71
2023-04-18T10:45:25.146Z,41.60
2023-04-18T10:48:30.839Z,41.28
2023-04-18T10:51:16.574Z,41.91
2023-04-18T10:53:56.566Z,41.68
2023-04-18T10:56:23.704Z,41.92
2023-04-18T10:58:51.790Z,41.42
2023-04-18T11:01:31.705Z,41.07
2023-04-18T11:04:01.810Z,40.63
2023-04-18T11:06:29.094Z,40.56
2023-04-18T11:09:12.286Z,39.75
2023-04-18T11:11:38.988Z,41.03
2023-04-18T11:14:05.693Z,40.52
2023-04-18T11:16:42.487Z,39.90
2023-04-18T11:19:21.385Z,39.08
2023-04-18T11:21:48.187Z,39.47
2023-04-18T11:24:24.442Z,39.83
2023-04-18T11:26:56.379Z,39.01
2023-04-18T11:29:23.209Z,38.64
2023-04-18T11:31:55.850Z,38.54
2023-04-18T11:34:30.508Z,38.43
2023-04-18T11:36:57.956Z,38.25
2023-04-18T11:39:24.629Z,38.49
2023-04-18T11:41:51.464Z,38.59
2023-04-18T11:44:23.058Z,38.41
2023-04-18T11:46:53.124Z,37.96
2023-04-18T11:49:30.406Z,37.73
2023-04-18T11:51:57.554Z,38.12
2023-04-18T11:54:39.131Z,38.41
2023-04-18T11:57:06.687Z,38.16
2023-04-18T11:59:33.463Z,38.18
2023-04-18T12:02:15.302Z,37.87
2023-04-18T12:05:00.381Z,38.22
2023-04-18T12:07:32.228Z,37.35
2023-04-18T12:09:59.114Z,37.75
2023-04-18T12:12:29.114Z,37.33
2023-04-18T12:15:07.344Z,36.97
2023-04-18T12:17:36.210Z,38.02
2023-04-18T12:20:04.902Z,36.99
2023-04-18T12:22:40.127Z,37.43
2023-04-18T12:25:27.104Z,36.39
2023-04-18T12:28:15.173Z,37.22
2023-04-18T12:30:42.431Z,36.76
2023-04-18T12:33:11.611Z,36.26
2023-04-18T12:35:38.270Z,36.60
2023-04-18T12:38:05.990Z,36.29
2023-04-18T12:40:32.629Z,36.13
2023-04-18T12:43:00.545Z,35.98
2023-04-18T12:45:28.160Z,35.45
2023-04-18T12:47:54.866Z,36.11
2023-04-18T12:50:26.149Z,35.58
2023-04-18T12:52:57.011Z,35.77
2023-04-18T12:55:26.555Z,36.07
2023-04-18T12:57:58.180Z,36.08
2023-04-18T13:00:32.841Z,36.02
2023-04-18T13:03:00.040Z,35.76
2023-04-18T13:05:31.623Z,36.50
2023-04-18T13:08:15.287Z,36.35
2023-04-18T13:10:43.465Z,36.35
2023-04-18T13:13:10.101Z,36.22
2023-04-18T13:15:36.687Z,36.77
2023-04-18T13:18:06.356Z,36.71
2023-04-18T13:20:33.995Z,36.31
2023-04-18T13:23:02.688Z,36.47
2023-04-18T13:25:29.601Z,35.94
2023-04-18T13:27:58.506Z,36.34
2023-04-18T13:30:25.408Z,36.69
2023-04-18T13:32:52.333Z,36.83
2023-04-18T13:35:19.132Z,36.51
2023-04-18T13:37:46.320Z,36.51
2023-04-18T13:40:13.614Z,36.83
2023-04-18T13:42:40.483Z,36.24
2023-04-18T13:45:07.751Z,36.09
2023-04-18T13:47:35.066Z,35.99
2023-04-18T13:50:01.853Z,36.18
2023-04-18T13:52:28.631Z,35.53
2023-04-18T13:54:55.473Z,36.13
2023-04-18T13:57:23.164Z,36.33
2023-04-18T13:59:52.644Z,36.07
2023-04-18T14:02:19.480Z,36.35
2023-04-18T14:04:46.596Z,36.24
2023-04-18T14:07:14.730Z,36.22
2023-04-18T14:09:41.405Z,36.73
2023-04-18T14:12:10.687Z,35.97
2023-04-18T14:14:37.345Z,36.17
2023-04-18T14:17:03.977Z,36.50
2023-04-18T14:19:32.105Z,36.44
2023-04-18T14:21:59.197Z,36.53
2023-04-18T14:24:26.291Z,36.98
2023-04-18T14:26:55.582Z,37.04
2023-04-18T14:29:22.215Z,36.78
2023-04-18T14:31:49.062Z,37.18
2023-04-18T14:34:15.804Z,36.60
2023-04-18T14:36:42.368Z,36.38
2023-04-18T14:39:09.167Z,36.57
2023-04-18T14:41:35.902Z,36.23
2023-04-18T14:44:04.138Z,35.56
2023-04-18T14:46:31.233Z,33.75
2023-04-18T14:48:58.274Z,32.64
2023-04-18T14:51:24.882Z,32.78
2023-04-18T14:53:51.833Z,32.61
2023-04-18T14:56:21.160Z,31.11
2023-04-18T14:58:50.838Z,31.83
2023-04-18T15:01:17.655Z,31.85
2023-04-18T15:03:48.047Z,31.31
2023-04-18T15:06:14.737Z,31.96
2023-04-18T15:08:44.173Z,31.79
2023-04-18T15:11:11.316Z,32.60
2023-04-18T15:13:37.980Z,32.67
2023-04-18T15:16:04.960Z,33.10
2023-04-18T15:18:31.529Z,33.54
2023-04-18T15:21:00.065Z,33.99
2023-04-18T15:23:27.662Z,34.21
2023-04-18T15:25:54.351Z,34.35
2023-04-18T15:28:21.030Z,34.77
2023-04-18T15:30:50.641Z,35.12
2023-04-18T15:33:19.186Z,35.29
2023-04-18T15:35:46.981Z,35.57
2023-04-18T15:38:14.014Z,36.17
2023-04-18T15:40:40.924Z,36.63
2023-04-18T15:43:07.607Z,37.04
2023-04-18T15:45:34.249Z,36.67
2023-04-18T15:48:00.998Z,36.53
2023-04-18T15:50:27.774Z,37.47
2023-04-18T15:52:54.540Z,37.10
2023-04-18T15:55:21.303Z,36.94
2023-04-18T15:57:47.884Z,37.57
2023-04-18T16:00:17.686Z,37.41
2023-04-18T16:02:45.137Z,37.76
2023-04-18T16:05:12.946Z,37.10
2023-04-18T16:07:40.383Z,37.40
2023-04-18T16:10:11.252Z,36.82
2023-04-18T16:12:39.497Z,37.07
2023-04-18T16:15:08.722Z,36.56
2023-04-18T16:17:36.967Z,36.89
2023-04-18T16:20:04.475Z,36.97
2023-04-18T16:22:33.723Z,37.18
2023-04-18T16:25:03.265Z,36.82
2023-04-18T16:27:30.021Z,37.13
2023-04-18T16:29:56.812Z,37.11
2023-04-18T16:32:23.512Z,37.65
2023-04-18T16:34:50.215Z,37.64
2023-04-18T16:37:16.907Z,37.71
2023-04-18T16:39:43.593Z,37.82
2023-04-18T16:42:14.872Z,37.92
2023-04-18T16:44:42.224Z,38.41
2023-04-18T16:47:08.959Z,37.72
2023-04-18T16:49:38.683Z,37.44
2023-04-18T16:52:08.357Z,37.35
2023-04-18T16:54:35.391Z,36.49
2023-04-18T16:57:02.879Z,36.52
2023-04-18T16:59:29.461Z,36.18
2023-04-18T17:01:56.264Z,35.96
2023-04-18T17:04:23.561Z,36.29
2023-04-18T17:06:52.099Z,36.42
2023-04-18T17:09:19.852Z,36.18
2023-04-18T17:11:46.585Z,36.56
2023-04-18T17:14:13.574Z,36.23
2023-04-18T17:16:42.303Z,36.06
2023-04-18T17:19:10.233Z,36.02
2023-04-18T17:21:37.704Z,35.77
2023-04-18T17:24:06.792Z,35.98
2023-04-18T17:26:34.789Z,36.28
2023-04-18T17:29:03.255Z,36.34
2023-04-18T17:31:32.973Z,36.29
2023-04-18T17:34:00.160Z,36.91
2023-04-18T17:36:29.853Z,36.98
2023-04-18T17:38:56.494Z,37.32
2023-04-18T17:41:23.370Z,37.67
2023-04-18T17:43:53.489Z,37.82
2023-04-18T17:46:20.149Z,38.17
2023-04-18T17:48:47.140Z,38.32
2023-04-18T17:51:16.326Z,38.70
2023-04-18T17:53:43.047Z,38.80
2023-04-18T17:56:10.204Z,38.98
2023-04-18T17:58:36.837Z,39.34
2023-04-18T18:01:03.564Z,39.57
2023-04-18T18:03:30.398Z,39.70
2023-04-18T18:05:57.148Z,39.86
2023-04-18T18:08:24.332Z,40.25
2023-04-18T18:10:50.982Z,40.65
2023-04-18T18:13:17.550Z,40.52
2023-04-18T18:15:46.862Z,40.36
2023-04-18T18:18:13.554Z,39.72
2023-04-18T18:20:43.344Z,38.80
2023-04-18T18:23:09.991Z,38.46
2023-04-18T18:25:37.848Z,38.25
2023-04-18T18:28:04.714Z,37.75
2023-04-18T18:30:31.543Z,37.53
2023-04-18T18:32:58.385Z,37.33
2023-04-18T18:35:25.014Z,37.49
2023-04-18T18:37:51.660Z,37.31
2023-04-18T18:40:18.461Z,37.53
2023-04-18T18:42:45.165Z,37.69
2023-04-18T18:45:11.942Z,37.83
2023-04-18T18:47:40.079Z,37.78
2023-04-18T18:50:07.768Z,38.03
2023-04-18T18:52:34.509Z,38.26
2023-04-18T18:55:01.616Z,38.22
2023-04-18T18:57:28.360Z,38.75
2023-04-18T18:59:55.943Z,38.35
2023-04-18T19:02:23.043Z,38.80
2023-04-18T19:04:49.901Z,38.67
2023-04-18T19:07:16.612Z,39.17
2023-04-18T19:09:43.298Z,39.10
2023-04-18T19:12:10.076Z,39.03
2023-04-18T19:14:36.694Z,39.23
2023-04-18T19:17:03.510Z,39.23
2023-04-18T19:19:30.175Z,39.38
2023-04-18T19:21:57.893Z,39.51
2023-04-18T19:24:24.567Z,39.53
2023-04-18T19:26:51.624Z,39.40
2023-04-18T19:29:18.266Z,39.75
2023-04-18T19:31:45.025Z,40.04
2023-04-18T19:34:12.118Z,40.36
2023-04-18T19:36:38.767Z,40.03
2023-04-18T19:39:05.714Z,40.08
2023-04-18T19:41:32.289Z,40.18
2023-04-18T19:43:58.961Z,40.46
2023-04-18T19:46:26.318Z,40.42
2023-04-18T19:48:52.949Z,40.80
2023-04-18T19:51:20.909Z,40.54
2023-04-18T19:53:47.576Z,40.66
2023-04-18T19:56:15.032Z,40.97
2023-04-18T19:58:46.745Z,40.66
2023-04-18T20:01:14.696Z,41.22
2023-04-18T20:03:45.031Z,40.87
2023-04-18T20:06:11.899Z,40.92
2023-04-18T20:08:44.586Z,40.97
2023-04-18T20:11:12.458Z,40.92
2023-04-18T20:13:39.121Z,40.97
2023-04-18T20:16:07.445Z,40.92
2023-04-18T20:18:35.941Z,40.97
2023-04-18T20:21:03.819Z,41.00
2023-04-18T20:23:30.538Z,41.02
2023-04-18T20:25:57.182Z,41.19
2023-04-18T20:28:26.696Z,41.27
2023-04-18T20:30:53.487Z,41.45
2023-04-18T20:33:20.134Z,41.30
2023-04-18T20:35:49.149Z,41.20
2023-04-18T20:38:15.767Z,41.48
2023-04-18T20:40:45.172Z,41.63
2023-04-18T20:43:17.514Z,41.94
2023-04-18T20:45:44.341Z,41.73
2023-04-18T20:48:10.907Z,41.84
2023-04-18T20:50:40.203Z,42.06
2023-04-18T20:53:06.816Z,42.25
2023-04-18T20:55:33.411Z,42.42
2023-04-18T20:58:00.081Z,42.19
2023-04-18T21:00:26.851Z,42.48
2023-04-18T21:02:53.557Z,42.47
2023-04-18T21:05:20.213Z,42.73
2023-04-18T21:07:46.800Z,42.72
2023-04-18T21:10:13.426Z,43.09
2023-04-18T21:12:40.067Z,43.00
2023-04-18T21:15:07.254Z,43.15
2023-04-18T21:17:33.908Z,42.65
2023-04-18T21:20:00.685Z,43.09
2023-04-18T21:22:27.344Z,43.17
2023-04-18T21:24:56.507Z,43.15
2023-04-18T21:27:23.110Z,43.17
2023-04-18T21:29:49.691Z,43.02
2023-04-18T21:32:16.331Z,43.29
2023-04-18T21:34:42.999Z,43.27
2023-04-18T21:37:09.619Z,43.38
2023-04-18T21:39:38.182Z,43.46
2023-04-18T21:42:04.821Z,43.47
2023-04-18T21:44:31.480Z,43.68
2023-04-18T21:46:58.096Z,43.67
2023-04-18T21:49:24.819Z,43.61
2023-04-18T21:51:51.499Z,43.83
2023-04-18T21:54:18.108Z,43.78
2023-04-18T21:56:44.805Z,44.04
2023-04-18T21:59:11.465Z,43.96
2023-04-18T22:01:38.516Z,43.96
2023-04-18T22:04:06.146Z,44.35
2023-04-18T22:06:33.423Z,44.40
2023-04-18T22:09:01.057Z,44.27
2023-04-18T22:11:28.617Z,44.49
2023-04-18T22:13:55.263Z,44.33
2023-04-18T22:16:22.248Z,44.59
2023-04-18T22:18:51.788Z,44.69
2023-04-18T22:21:18.507Z,44.42
2023-04-18T22:23:45.152Z,44.52
2023-04-18T22:26:11.854Z,44.31
2023-04-18T22:28:38.545Z,44.45
2023-04-18T22:31:05.445Z,44.44
2023-04-18T22:33:32.097Z,44.67
2023-04-18T22:35:58.799Z,44.48
2023-04-18T22:38:25.840Z,44.67
2023-04-18T22:40:52.468Z,44.35
2023-04-18T22:43:23.776Z,44.59
2023-04-18T22:45:51.058Z,44.67
2023-04-18T22:48:18.002Z,44.79
2023-04-18T22:50:44.581Z,44.69
2023-04-18T22:53:11.361Z,45.00
2023-04-18T22:55:42.048Z,45.06
2023-04-18T22:58:12.001Z,44.88
2023-04-18T23:00:38.847Z,45.10
2023-04-18T23:03:05.628Z,44.88
2023-04-18T23:05:32.813Z,45.05
2023-04-18T23:08:00.609Z,44.83
2023-04-18T23:10:27.444Z,45.18
2023-04-18T23:12:54.081Z,45.04
2023-04-18T23:15:22.909Z,44.86
2023-04-18T23:17:52.842Z,44.95
2023-04-18T23:20:20.387Z,44.94
2023-04-18T23:22:50.058Z,44.93
2023-04-18T23:25:16.776Z,44.96
2023-04-18T23:27:43.583Z,45.04
2023-04-18T23:30:10.627Z,45.23
2023-04-18T23:32:37.301Z,45.44
2023-04-18T23:35:06.038Z,45.30
2023-04-18T23:37:32.862Z,44.89
2023-04-18T23:40:02.841Z,45.25
2023-04-18T23:42:29.484Z,45.12
2023-04-18T23:44:57.803Z,45.15
2023-04-18T23:47:24.492Z,45.33
2023-04-18T23:49:51.131Z,45.36
2023-04-18T23:52:17.732Z,45.55
2023-04-18T23:54:45.352Z,45.67
2023-04-18T23:57:11.915Z,45.76
2023-04-18T23:59:38.521Z,45.58
